ESSB

Stockholm-Bromma Airport

Stockholm, Sweden
METAR ESSB 250450Z 13003KT CAVOK 15/03 Q1029
Observed Flight Rules
May-25 @ 04:50 UTC (30 minutes ago) Visual Flight Rules
Wind Visibility Clouds
130° at 3 knots 10,000+ meters
  • Clear skies
Temperatures Readings
Current 15°C / 59°F
Dewpoint 3°C / 37°F
Humidity 45%
Altimeter 30.38" Hg
Pressure 1029 hPa
Elevation 11
METAR ESSB 250450Z 13003KT CAVOK 15/03 Q1029
Observed Flight Rules
May-25 @ 04:50 UTC
(30 minutes ago)
VFR
Wind Visibility
130° at 3 knots 10,000+ meters
Clouds
  • Clear skies
Temperature Dewpoint
15°C / 59°F 3°C / 37°F
Humidity Altimeter Pressure
45% 30.38" Hg 1029 hPa